createdAt,value
2022-08-27T18:30:03.328Z,1212.77
2022-08-27T18:32:33.257Z,1196.70
2022-08-27T18:35:10.563Z,1181.43
2022-08-27T18:37:40.347Z,1178.00
2022-08-27T18:40:11.836Z,1179.73
2022-08-27T18:42:42.710Z,1167.67
2022-08-27T18:45:23.081Z,1169.30
2022-08-27T18:47:54.495Z,1165.80
2022-08-27T18:50:25.278Z,1158.73
2022-08-27T18:52:57.563Z,1163.63
2022-08-27T18:55:28.713Z,1155.70
2022-08-27T18:57:58.616Z,1152.73
2022-08-27T19:00:28.471Z,1153.50
2022-08-27T19:02:58.281Z,1152.67
2022-08-27T19:05:29.989Z,1156.90
2022-08-27T19:08:01.063Z,1155.93
2022-08-27T19:10:30.783Z,1149.97
2022-08-27T19:13:00.469Z,1143.43
2022-08-27T19:15:30.243Z,1146.77
2022-08-27T19:18:03.055Z,1148.40
2022-08-27T19:20:33.834Z,1140.40
2022-08-27T19:23:03.696Z,1142.20
2022-08-27T19:25:33.522Z,1143.07
2022-08-27T19:28:03.718Z,1143.33
2022-08-27T19:30:33.461Z,1140.10
2022-08-27T19:33:03.259Z,1136.13
2022-08-27T19:35:34.395Z,1138.33
2022-08-27T19:38:04.684Z,1143.37
2022-08-27T19:40:38.438Z,1132.57
2022-08-27T19:43:08.535Z,1136.17
2022-08-27T19:45:40.451Z,1122.03
2022-08-27T19:48:12.642Z,1126.43
2022-08-27T19:50:43.237Z,1130.83
2022-08-27T19:53:13.404Z,1131.87
2022-08-27T19:55:46.210Z,1126.67
2022-08-27T19:58:17.319Z,1124.07
2022-08-27T20:00:47.964Z,1121.43
2022-08-27T20:03:17.903Z,1128.83
2022-08-27T20:05:50.683Z,1115.70
2022-08-27T20:08:21.021Z,1121.33
2022-08-27T20:10:51.422Z,1119.10
2022-08-27T20:13:21.535Z,1112.40
2022-08-27T20:15:52.835Z,1119.10
2022-08-27T20:18:24.036Z,1116.50
2022-08-27T20:20:53.805Z,1117.90
2022-08-27T20:23:25.052Z,1114.03
2022-08-27T20:25:59.155Z,1111.60
2022-08-27T20:28:39.782Z,1124.47
2022-08-27T20:31:10.681Z,1114.13
2022-08-27T20:33:40.786Z,1116.27
2022-08-27T20:36:11.379Z,1119.90
2022-08-27T20:38:41.417Z,1114.87
2022-08-27T20:41:11.244Z,1126.63
2022-08-27T20:43:40.926Z,1109.80
2022-08-27T20:46:11.307Z,1110.10
2022-08-27T20:48:41.055Z,1106.00
2022-08-27T20:51:11.452Z,1116.13
2022-08-27T20:53:41.217Z,1117.93
2022-08-27T20:56:11.257Z,1114.77
2022-08-27T20:58:53.398Z,1109.40
2022-08-27T21:01:23.743Z,1110.77
2022-08-27T21:03:54.439Z,1103.77
2022-08-27T21:06:26.527Z,1113.00
2022-08-27T21:08:56.821Z,1110.93
2022-08-27T21:11:26.911Z,1114.60
2022-08-27T21:13:56.900Z,1104.60
2022-08-27T21:16:28.296Z,1107.10
2022-08-27T21:18:58.294Z,1109.13
2022-08-27T21:21:27.985Z,1107.23
2022-08-27T21:23:58.245Z,1103.60
2022-08-27T21:26:27.982Z,1105.97
2022-08-27T21:28:57.695Z,1111.33
2022-08-27T21:31:28.159Z,1106.03
2022-08-27T21:33:58.215Z,1105.43
2022-08-27T21:36:27.864Z,1108.40
2022-08-27T21:38:57.654Z,1109.73
2022-08-27T21:41:27.417Z,1102.70
2022-08-27T21:43:57.818Z,1108.67
2022-08-27T21:46:27.513Z,1106.67
2022-08-27T21:48:59.122Z,1105.17
2022-08-27T21:51:29.086Z,1111.07
2022-08-27T21:54:00.413Z,1105.10
2022-08-27T21:56:30.763Z,1103.90
2022-08-27T21:59:00.525Z,1105.63
2022-08-27T22:01:30.306Z,1105.07
2022-08-27T22:03:59.964Z,1109.97
2022-08-27T22:06:29.718Z,1108.63
2022-08-27T22:08:59.441Z,1099.37
2022-08-27T22:11:30.632Z,1110.40
2022-08-27T22:14:01.159Z,1101.27
2022-08-27T22:16:31.030Z,1095.63
2022-08-27T22:19:00.769Z,1102.70
2022-08-27T22:21:30.459Z,1094.67
2022-08-27T22:24:00.199Z,1100.00
2022-08-27T22:26:30.257Z,1098.73
2022-08-27T22:28:59.939Z,1100.47
2022-08-27T22:31:31.289Z,1097.00
2022-08-27T22:34:02.850Z,1098.60
2022-08-27T22:36:32.635Z,1097.53
2022-08-27T22:39:03.705Z,1095.33
2022-08-27T22:41:34.084Z,1089.80
2022-08-27T22:44:04.575Z,1100.70
2022-08-27T22:46:35.663Z,1090.53
2022-08-27T22:49:05.503Z,1095.07
2022-08-27T22:51:35.210Z,1087.00
2022-08-27T22:54:04.940Z,1093.03
2022-08-27T22:56:34.677Z,1100.87
2022-08-27T22:59:07.346Z,1091.17
2022-08-27T23:01:38.780Z,1090.50
2022-08-27T23:04:09.255Z,1094.37
2022-08-27T23:06:39.238Z,1096.27
2022-08-27T23:09:09.138Z,1096.77
2022-08-27T23:11:39.056Z,1089.80
2022-08-27T23:14:08.750Z,1095.77
2022-08-27T23:16:38.602Z,1093.97
2022-08-27T23:19:08.258Z,1083.20
2022-08-27T23:21:38.565Z,1086.60
2022-08-27T23:24:08.328Z,1092.57
2022-08-27T23:26:50.629Z,1088.60
2022-08-27T23:29:22.690Z,1087.13
2022-08-27T23:31:53.965Z,1085.27
2022-08-27T23:34:23.920Z,1092.40
2022-08-27T23:36:53.641Z,1088.50
2022-08-27T23:39:23.377Z,1089.40
2022-08-27T23:41:53.142Z,1088.80
2022-08-27T23:44:22.865Z,1082.67
2022-08-27T23:46:52.565Z,1082.80
2022-08-27T23:49:22.274Z,1087.10
2022-08-27T23:51:51.971Z,1089.63
2022-08-27T23:54:21.855Z,1087.07
2022-08-27T23:56:51.538Z,1084.20
2022-08-27T23:59:21.255Z,1089.37
